Time;durP1;ratioP1;P1;durP2;ratioP2;P2;SDS_P1;SDS_P2;PMS_P1;PMS_P2;Temp;Humidity;BMP_temperature;BMP_pressure;BME280_temperature;BME280_humidity;BME280_pressure;Samples;Min_cycle;Max_cycle;Signal;HPM_P1;HPM_P2
2022/03/04 00:01:13;;;;;;;629.35;246.88;;;-1.70;99.90;;;;;;5074274;28;20083;-58
2022/03/04 00:03:39;;;;;;;601.97;229.55;;;-1.80;99.90;;;;;;5074319;28;20081;-58
2022/03/04 00:06:05;;;;;;;662.83;256.77;;;-1.80;99.90;;;;;;5074073;28;20025;-58
2022/03/04 00:08:31;;;;;;;520.63;211.00;;;-1.80;99.90;;;;;;5074029;28;20100;-58
2022/03/04 00:10:58;;;;;;;478.25;197.32;;;-1.80;99.90;;;;;;5074066;28;20028;-58
2022/03/04 00:13:24;;;;;;;487.45;198.73;;;-1.80;99.90;;;;;;5073824;28;20028;-58
2022/03/04 00:15:50;;;;;;;461.45;183.93;;;-1.80;99.90;;;;;;5074194;28;20389;-58
2022/03/04 00:18:16;;;;;;;434.33;171.93;;;-1.80;99.90;;;;;;5073845;28;20021;-58
2022/03/04 00:20:42;;;;;;;427.92;173.05;;;-1.90;99.90;;;;;;5073903;28;20051;-58
2022/03/04 00:23:08;;;;;;;513.83;201.90;;;-1.90;99.90;;;;;;5073793;28;20041;-58
2022/03/04 00:25:35;;;;;;;510.02;202.98;;;-1.90;99.90;;;;;;5073758;28;20033;-58
2022/03/04 00:28:01;;;;;;;524.88;219.55;;;-1.90;99.90;;;;;;5073870;28;20108;-58
2022/03/04 00:30:28;;;;;;;487.27;193.50;;;-2.00;99.90;;;;;;5073725;28;20048;-58
2022/03/04 00:32:53;;;;;;;435.98;171.45;;;-2.00;99.90;;;;;;5073892;28;20029;-58
2022/03/04 00:35:19;;;;;;;414.13;164.25;;;-2.00;99.90;;;;;;5073611;28;20032;-58
2022/03/04 00:37:45;;;;;;;440.90;177.55;;;-2.10;99.90;;;;;;5073947;28;20066;-58
2022/03/04 00:40:14;;;;;;;446.02;183.13;;;-2.00;99.90;;;;;;5073903;28;20060;-58
2022/03/04 00:42:40;;;;;;;446.48;170.13;;;-2.00;99.90;;;;;;5073647;28;20055;-58
2022/03/04 00:45:06;;;;;;;370.25;149.77;;;-2.10;99.90;;;;;;5073950;28;20052;-58
2022/03/04 00:47:32;;;;;;;365.80;147.80;;;-2.00;99.90;;;;;;5073433;28;20490;-58
2022/03/04 00:49:58;;;;;;;368.60;148.55;;;-2.00;99.90;;;;;;5073723;28;20608;-58
2022/03/04 00:52:24;;;;;;;415.25;166.55;;;-2.10;99.90;;;;;;5073513;28;20394;-58
2022/03/04 00:54:50;;;;;;;407.27;163.93;;;-2.10;99.90;;;;;;5073607;28;20039;-58
2022/03/04 00:57:17;;;;;;;444.77;180.27;;;-2.10;99.90;;;;;;5073413;28;20028;-58
2022/03/04 00:59:43;;;;;;;450.45;186.18;;;-2.20;99.90;;;;;;5073632;28;20367;-58
2022/03/04 01:02:09;;;;;;;435.25;181.52;;;-2.10;99.90;;;;;;5073232;28;20060;-58
2022/03/04 01:04:35;;;;;;;426.52;174.70;;;-2.20;99.90;;;;;;5073308;28;20088;-58
2022/03/04 01:07:01;;;;;;;412.02;171.00;;;-2.10;99.90;;;;;;5073528;28;20025;-58
2022/03/04 01:09:27;;;;;;;416.33;171.57;;;-2.20;99.90;;;;;;5076015;28;20027;-58
2022/03/04 01:11:53;;;;;;;440.48;181.68;;;-2.20;99.90;;;;;;5077152;28;20102;-58
2022/03/04 01:14:19;;;;;;;428.73;169.73;;;-2.10;99.90;;;;;;5077336;28;20465;-58
2022/03/04 01:16:45;;;;;;;402.77;168.63;;;-2.10;99.90;;;;;;5077300;28;20078;-58
2022/03/04 01:19:11;;;;;;;404.45;164.43;;;-2.10;99.90;;;;;;5077337;28;20029;-58
2022/03/04 01:21:38;;;;;;;363.40;150.85;;;-2.10;99.90;;;;;;5076914;28;20047;-58
2022/03/04 01:24:04;;;;;;;355.33;147.05;;;-2.10;99.90;;;;;;5076816;28;20432;-58
2022/03/04 01:26:30;;;;;;;334.90;140.30;;;-2.10;99.90;;;;;;5077114;28;20055;-58
2022/03/04 01:28:56;;;;;;;326.48;137.15;;;-2.10;99.90;;;;;;5077258;28;20027;-58
2022/03/04 01:31:22;;;;;;;305.90;130.70;;;-2.20;99.90;;;;;;5076892;28;20028;-58
2022/03/04 01:33:48;;;;;;;347.92;145.80;;;-2.30;99.90;;;;;;5077079;28;20039;-58
2022/03/04 01:36:14;;;;;;;387.10;146.75;;;-2.20;99.90;;;;;;5076953;28;20413;-58
2022/03/04 01:38:40;;;;;;;402.88;160.05;;;-2.10;99.90;;;;;;5076813;28;20118;-58
2022/03/04 01:41:06;;;;;;;398.38;160.75;;;-2.00;99.90;;;;;;5076890;28;20040;-58
2022/03/04 01:43:32;;;;;;;388.15;156.23;;;-2.00;99.90;;;;;;5076468;28;20706;-58
2022/03/04 01:46:15;;;;;;;363.80;153.90;;;-2.00;99.90;;;;;;5076624;28;20484;-58
2022/03/04 01:48:43;;;;;;;322.27;135.88;;;-2.10;99.90;;;;;;5076862;28;20025;-58
2022/03/04 01:51:10;;;;;;;323.00;132.63;;;-2.10;99.90;;;;;;5076668;28;20040;-58
2022/03/04 01:53:38;;;;;;;330.33;132.23;;;-2.20;99.90;;;;;;5076325;28;20040;-58
2022/03/04 01:56:04;;;;;;;320.08;129.38;;;-2.20;99.90;;;;;;5076744;28;20033;-58
2022/03/04 01:58:30;;;;;;;319.23;131.88;;;-2.20;99.90;;;;;;5076267;28;20029;-58
2022/03/04 02:00:57;;;;;;;304.17;127.60;;;-2.20;99.90;;;;;;5076641;28;20048;-58
2022/03/04 02:03:24;;;;;;;284.58;118.20;;;-2.30;99.90;;;;;;5076187;28;20466;-58
2022/03/04 02:05:50;;;;;;;295.33;122.80;;;-2.30;99.90;;;;;;5076456;28;20086;-58
2022/03/04 02:08:16;;;;;;;341.02;130.70;;;-2.20;99.90;;;;;;5076174;28;20024;-58
2022/03/04 02:10:42;;;;;;;330.42;128.98;;;-2.30;99.90;;;;;;5076332;28;20024;-58
2022/03/04 02:13:08;;;;;;;335.02;128.30;;;-2.30;99.90;;;;;;5076324;28;20505;-58
2022/03/04 02:15:34;;;;;;;281.30;118.30;;;-2.30;99.90;;;;;;5076038;28;20464;-58
2022/03/04 02:18:00;;;;;;;305.27;123.25;;;-2.40;99.90;;;;;;5076157;28;20032;-58
2022/03/04 02:20:29;;;;;;;314.70;126.18;;;-2.40;99.90;;;;;;5074846;28;20029;-58
2022/03/04 02:22:55;;;;;;;298.13;121.97;;;-2.40;99.90;;;;;;5075829;28;20029;-58
2022/03/04 02:25:21;;;;;;;359.35;135.13;;;-2.40;99.90;;;;;;5076002;28;20142;-58
2022/03/04 02:27:47;;;;;;;497.08;166.20;;;-2.40;99.90;;;;;;5076106;28;20032;-58
2022/03/04 02:30:14;;;;;;;473.27;167.50;;;-2.40;99.90;;;;;;5076052;28;20029;-58
2022/03/04 02:32:40;;;;;;;396.80;144.82;;;-2.40;99.90;;;;;;5075517;28;20037;-58
2022/03/04 02:35:06;;;;;;;350.25;135.10;;;-2.40;99.90;;;;;;5075738;28;20427;-58
2022/03/04 02:37:32;;;;;;;292.42;119.07;;;-2.50;99.90;;;;;;5075645;28;20067;-58
2022/03/04 02:39:58;;;;;;;343.55;129.73;;;-2.50;99.90;;;;;;5075877;28;20037;-58
2022/03/04 02:42:24;;;;;;;438.88;151.35;;;-2.50;99.90;;;;;;5075481;28;20039;-58
2022/03/04 02:44:51;;;;;;;460.40;157.95;;;-2.40;99.90;;;;;;5075750;28;20035;-58
2022/03/04 02:47:18;;;;;;;418.83;148.35;;;-2.40;99.90;;;;;;5075278;28;20032;-58
2022/03/04 02:49:44;;;;;;;415.52;150.18;;;-2.30;99.90;;;;;;5075773;28;20104;-58
2022/03/04 02:52:10;;;;;;;372.25;135.35;;;-2.30;99.90;;;;;;5075648;28;20085;-58
2022/03/04 02:54:36;;;;;;;471.98;167.43;;;-2.30;99.90;;;;;;5075154;28;20036;-58
2022/03/04 02:57:02;;;;;;;460.55;157.43;;;-2.20;99.90;;;;;;5075260;28;20032;-58
2022/03/04 02:59:28;;;;;;;396.42;139.68;;;-2.20;99.90;;;;;;5075266;28;20024;-58
2022/03/04 03:01:54;;;;;;;363.38;133.77;;;-2.30;99.90;;;;;;5075184;28;20162;-58
2022/03/04 03:04:20;;;;;;;370.02;133.98;;;-2.30;99.90;;;;;;5075303;28;20040;-58
2022/03/04 03:06:46;;;;;;;335.67;128.02;;;-2.30;99.90;;;;;;5075292;28;20389;-58
2022/03/04 03:09:12;;;;;;;295.10;120.78;;;-2.30;99.90;;;;;;5075238;28;20115;-58
2022/03/04 03:11:39;;;;;;;265.55;114.00;;;-2.20;99.90;;;;;;5075029;28;20071;-58
2022/03/04 03:14:05;;;;;;;262.75;114.10;;;-2.10;99.90;;;;;;5075263;28;20032;-58
2022/03/04 03:16:31;;;;;;;265.08;114.50;;;-2.00;99.90;;;;;;5075063;28;20090;-58
2022/03/04 03:18:57;;;;;;;261.88;114.07;;;-1.90;99.90;;;;;;5074878;28;20065;-58
2022/03/04 03:21:23;;;;;;;252.93;110.90;;;-2.00;99.90;;;;;;5075229;28;20040;-58
2022/03/04 03:23:49;;;;;;;239.27;105.75;;;-2.00;99.90;;;;;;5074781;28;20106;-58
2022/03/04 03:26:15;;;;;;;241.40;107.13;;;-2.20;99.90;;;;;;5074931;28;20033;-58
2022/03/04 03:28:41;;;;;;;228.70;103.22;;;-2.20;99.90;;;;;;5075142;28;20029;-58
2022/03/04 03:31:07;;;;;;;233.35;102.90;;;-2.20;99.90;;;;;;5074276;28;20221;-58
2022/03/04 03:33:36;;;;;;;227.23;95.57;;;-2.20;99.90;;;;;;5074480;28;20032;-58
2022/03/04 03:36:02;;;;;;;242.57;97.25;;;-2.30;99.90;;;;;;5074579;28;20021;-58
2022/03/04 03:38:28;;;;;;;403.30;135.85;;;-2.20;99.90;;;;;;5074495;28;20028;-58
2022/03/04 03:40:54;;;;;;;389.73;134.52;;;-2.20;99.90;;;;;;5074610;28;20058;-58
2022/03/04 03:43:20;;;;;;;367.23;132.02;;;-2.20;99.90;;;;;;5074294;28;20032;-58
2022/03/04 03:45:46;;;;;;;329.65;122.72;;;-2.20;99.90;;;;;;5074502;28;20100;-58
2022/03/04 03:48:12;;;;;;;299.27;112.85;;;-2.30;99.90;;;;;;5074142;28;20424;-58
2022/03/04 03:50:38;;;;;;;293.25;113.78;;;-2.30;99.90;;;;;;5074354;28;20028;-58
2022/03/04 03:53:05;;;;;;;266.50;106.35;;;-2.30;99.90;;;;;;5074221;28;20070;-58
2022/03/04 03:55:31;;;;;;;259.52;104.30;;;-2.30;99.90;;;;;;5074141;28;20509;-58
2022/03/04 03:57:57;;;;;;;291.63;108.05;;;-2.40;99.90;;;;;;5074349;28;20029;-58
2022/03/04 04:00:23;;;;;;;307.42;114.10;;;-2.40;99.90;;;;;;5074056;28;20024;-58
2022/03/04 04:02:50;;;;;;;317.33;117.18;;;-2.50;99.90;;;;;;5074177;28;20032;-58
2022/03/04 04:05:16;;;;;;;288.83;109.47;;;-2.50;99.90;;;;;;5074094;28;20035;-58
2022/03/04 04:07:42;;;;;;;266.73;102.47;;;-2.50;99.90;;;;;;5074138;28;20029;-58
2022/03/04 04:10:08;;;;;;;263.50;101.70;;;-2.50;99.90;;;;;;5074261;28;20060;-58
2022/03/04 04:12:35;;;;;;;237.85;97.75;;;-2.60;99.90;;;;;;5073918;28;20462;-58
2022/03/04 04:15:01;;;;;;;242.35;98.75;;;-2.60;99.90;;;;;;5073994;28;20098;-58
2022/03/04 04:17:27;;;;;;;239.63;97.07;;;-2.60;99.90;;;;;;5073881;28;20398;-58
2022/03/04 04:19:53;;;;;;;232.32;92.57;;;-2.70;99.90;;;;;;5074197;28;20029;-58
2022/03/04 04:22:20;;;;;;;229.10;95.47;;;-2.70;99.90;;;;;;5073762;28;20039;-58
2022/03/04 04:24:46;;;;;;;211.82;90.85;;;-2.80;99.90;;;;;;5073993;28;20575;-58
2022/03/04 04:27:12;;;;;;;197.18;85.15;;;-2.80;99.90;;;;;;5073887;28;20640;-58
2022/03/04 04:29:38;;;;;;;198.50;87.43;;;-2.80;99.90;;;;;;5073802;28;20024;-58
2022/03/04 04:32:05;;;;;;;233.45;96.63;;;-2.90;99.90;;;;;;5073934;28;20033;-58
2022/03/04 04:34:31;;;;;;;229.20;95.70;;;-3.00;99.90;;;;;;5073661;28;20068;-58
2022/03/04 04:36:56;;;;;;;219.30;93.28;;;-3.10;99.90;;;;;;5073884;28;20056;-58
2022/03/04 04:39:22;;;;;;;263.15;115.63;;;-3.00;99.90;;;;;;5073771;28;20416;-58
2022/03/04 04:41:48;;;;;;;201.38;89.28;;;-3.00;99.90;;;;;;5073670;28;20086;-58
2022/03/04 04:44:14;;;;;;;197.93;85.22;;;-3.00;99.90;;;;;;5076223;28;20028;-58
2022/03/04 04:46:40;;;;;;;195.52;84.10;;;-3.00;99.90;;;;;;5078504;28;20050;-58
2022/03/04 04:49:06;;;;;;;195.32;82.53;;;-3.00;99.90;;;;;;5078025;28;20135;-58
2022/03/04 04:51:32;;;;;;;220.38;85.95;;;-3.10;99.90;;;;;;5077499;28;20036;-58
2022/03/04 04:53:58;;;;;;;198.05;84.43;;;-3.10;99.90;;;;;;5077853;28;20028;-58
2022/03/04 04:56:24;;;;;;;187.32;83.47;;;-3.20;99.90;;;;;;5077799;28;20401;-58
2022/03/04 04:58:50;;;;;;;190.23;80.97;;;-3.10;99.90;;;;;;5077997;28;20147;-58
2022/03/04 05:01:16;;;;;;;190.90;82.80;;;-3.10;99.90;;;;;;5077837;28;20066;-58
2022/03/04 05:03:43;;;;;;;188.63;79.68;;;-3.20;99.90;;;;;;5077733;28;20100;-58
2022/03/04 05:06:09;;;;;;;206.57;85.35;;;-3.20;99.90;;;;;;5077440;28;20389;-58
2022/03/04 05:08:36;;;;;;;195.52;85.55;;;-3.20;99.90;;;;;;5077405;28;20039;-58
2022/03/04 05:11:01;;;;;;;199.35;86.63;;;-3.10;99.90;;;;;;5077179;28;20031;-58
2022/03/04 05:13:28;;;;;;;291.58;107.05;;;-3.10;99.90;;;;;;5077384;28;20036;-58
2022/03/04 05:15:53;;;;;;;279.70;105.10;;;-3.20;99.90;;;;;;5077470;28;20024;-58
2022/03/04 05:18:19;;;;;;;365.42;124.82;;;-3.20;99.90;;;;;;5077098;28;20039;-58
2022/03/04 05:20:45;;;;;;;375.55;128.02;;;-3.20;99.90;;;;;;5077307;28;20043;-58
2022/03/04 05:23:58;;;;;;;326.90;119.63;;;-3.20;99.90;;;;;;5077006;28;20079;-58
2022/03/04 05:25:57;;;;;;;243.48;96.88;;;-3.30;99.90;;;;;;5077361;28;20463;-58
2022/03/04 05:28:23;;;;;;;239.35;96.70;;;-3.10;99.90;;;;;;5077030;28;20028;-58
2022/03/04 05:30:49;;;;;;;280.10;105.35;;;-3.00;99.90;;;;;;5077102;28;20411;-58
2022/03/04 05:33:15;;;;;;;347.38;118.82;;;-3.00;99.90;;;;;;5076627;28;20115;-58
2022/03/04 05:35:41;;;;;;;334.10;119.10;;;-3.00;99.90;;;;;;5059078;28;20033;-58
2022/03/04 05:38:07;;;;;;;301.42;106.63;;;-2.90;99.90;;;;;;5076896;28;20028;-58
2022/03/04 05:40:33;;;;;;;289.30;104.13;;;-2.90;99.90;;;;;;5076615;28;20142;-58
2022/03/04 05:42:59;;;;;;;280.83;97.43;;;-2.80;99.90;;;;;;5076883;28;20029;-58
2022/03/04 05:45:25;;;;;;;279.23;101.78;;;-2.60;99.90;;;;;;5076705;28;20071;-58
2022/03/04 05:47:51;;;;;;;284.65;105.38;;;-2.40;99.90;;;;;;5076527;28;20039;-58
2022/03/04 05:50:17;;;;;;;289.80;106.53;;;-2.40;99.90;;;;;;5076556;28;20082;-58
2022/03/04 05:52:43;;;;;;;334.17;131.90;;;-2.20;99.90;;;;;;5076712;28;20052;-58
2022/03/04 05:55:09;;;;;;;393.45;148.23;;;-1.80;99.90;;;;;;5076297;28;20478;-58
2022/03/04 05:57:35;;;;;;;394.02;134.40;;;-1.40;99.90;;;;;;5076692;28;20626;-58
2022/03/04 06:00:01;;;;;;;310.23;124.13;;;-1.10;99.90;;;;;;5076440;28;20024;-58
2022/03/04 06:02:28;;;;;;;331.85;131.73;;;-0.70;99.90;;;;;;5076224;28;20029;-58
2022/03/04 06:04:54;;;;;;;331.65;134.07;;;-0.60;99.90;;;;;;5076681;28;20075;-58
2022/03/04 06:07:20;;;;;;;317.00;131.98;;;-0.50;99.90;;;;;;5076490;28;20486;-58
2022/03/04 06:09:46;;;;;;;306.25;128.73;;;-0.40;99.90;;;;;;5076366;28;20029;-58
2022/03/04 06:12:12;;;;;;;296.70;118.63;;;-0.40;99.90;;;;;;5076133;28;20020;-58
2022/03/04 06:14:38;;;;;;;281.98;119.03;;;-0.30;99.90;;;;;;5071020;28;20029;-58
2022/03/04 06:17:04;;;;;;;277.00;114.35;;;-0.30;99.90;;;;;;5065490;28;20113;-58
2022/03/04 06:19:30;;;;;;;300.38;117.20;;;-0.10;99.90;;;;;;5063020;28;20166;-58
2022/03/04 06:21:56;;;;;;;286.02;119.85;;;-0.10;99.90;;;;;;5061531;28;20048;-58
2022/03/04 06:24:22;;;;;;;296.88;120.25;;;0.00;99.90;;;;;;5070255;28;20041;-58
2022/03/04 06:26:49;;;;;;;308.63;124.30;;;0.10;99.90;;;;;;5066673;28;20047;-58
2022/03/04 06:29:15;;;;;;;313.73;122.22;;;0.20;99.90;;;;;;5061694;28;20028;-58
2022/03/04 06:31:41;;;;;;;328.90;122.47;;;0.30;99.90;;;;;;5059669;28;20474;-58
2022/03/04 06:34:07;;;;;;;333.73;135.55;;;0.50;99.90;;;;;;5069035;28;20029;-58
2022/03/04 06:36:33;;;;;;;313.38;130.63;;;0.70;99.90;;;;;;5058577;28;20032;-58
2022/03/04 06:39:00;;;;;;;321.48;127.63;;;0.70;99.90;;;;;;5066984;28;20032;-59
2022/03/04 06:41:26;;;;;;;295.50;120.95;;;0.80;99.90;;;;;;5063058;28;20040;-60
2022/03/04 06:43:52;;;;;;;301.77;124.18;;;0.60;99.90;;;;;;5060240;28;20031;-59
2022/03/04 06:46:18;;;;;;;300.08;119.90;;;0.80;99.90;;;;;;5068465;28;20466;-59
2022/03/04 06:48:46;;;;;;;298.48;120.25;;;0.80;99.90;;;;;;5044888;28;20024;-59
2022/03/04 06:51:12;;;;;;;310.10;114.78;;;1.00;99.90;;;;;;5053465;28;20029;-59
2022/03/04 06:53:38;;;;;;;274.20;105.43;;;1.10;99.90;;;;;;5059333;28;20037;-59
2022/03/04 06:56:04;;;;;;;271.35;111.70;;;1.20;99.90;;;;;;5067717;28;20016;-59
2022/03/04 06:58:30;;;;;;;251.10;102.70;;;1.60;99.90;;;;;;5066166;28;20067;-59
2022/03/04 07:00:56;;;;;;;263.83;97.53;;;1.90;99.90;;;;;;5068230;28;20036;-59
2022/03/04 07:03:23;;;;;;;230.05;96.20;;;2.10;99.90;;;;;;5056025;28;20044;-59
2022/03/04 07:05:49;;;;;;;241.73;97.72;;;2.50;99.90;;;;;;5065005;28;20773;-59
2022/03/04 07:08:16;;;;;;;241.07;94.97;;;2.80;99.90;;;;;;5061056;28;20033;-59
2022/03/04 07:10:43;;;;;;;256.88;98.40;;;2.90;99.90;;;;;;5068583;28;20028;-59
2022/03/04 07:17:38;;;;;;;230.43;101.35;;;3.60;99.90;;;;;;4996957;28;20048;-61
2022/03/04 07:20:06;;;;;;;249.95;101.55;;;4.30;99.90;;;;;;5060395;28;20032;-60
2022/03/04 07:22:35;;;;;;;234.02;101.28;;;4.30;99.90;;;;;;5042229;28;20028;-61
2022/03/04 07:25:05;;;;;;;;;;;4.20;99.90;;;;;;5058767;28;20037;-59
2022/03/04 07:27:33;;;;;;;227.88;98.97;;;4.00;99.90;;;;;;5058509;28;19944;-60
2022/03/04 07:30:02;;;;;;;238.70;103.93;;;3.90;99.90;;;;;;5059854;28;20036;-60
2022/03/04 07:32:28;;;;;;;238.07;103.05;;;3.70;99.90;;;;;;5062724;28;20037;-59
2022/03/04 07:34:57;;;;;;;233.98;108.60;;;3.60;99.90;;;;;;5066478;28;20107;-60
2022/03/04 07:37:24;;;;;;;237.27;102.03;;;3.70;99.90;;;;;;5060628;28;20036;-59
2022/03/04 07:39:53;;;;;;;248.60;105.43;;;4.10;99.90;;;;;;5045827;28;20024;-60
2022/03/04 07:42:19;;;;;;;224.15;100.43;;;4.60;99.90;;;;;;5059938;28;20029;-60
2022/03/04 07:44:45;;;;;;;225.82;102.28;;;4.30;99.90;;;;;;5062140;28;20024;-59
2022/03/04 07:47:11;;;;;;;233.82;102.47;;;4.50;99.90;;;;;;5057726;28;20031;-59
2022/03/04 07:49:37;;;;;;;224.18;100.95;;;4.60;99.90;;;;;;5059328;28;20051;-59
2022/03/04 07:52:03;;;;;;;221.73;101.88;;;4.60;99.90;;;;;;5067409;28;20031;-59
2022/03/04 07:54:29;;;;;;;229.23;103.32;;;4.90;99.90;;;;;;5066935;28;20025;-59
2022/03/04 07:56:55;;;;;;;243.57;109.53;;;5.20;99.90;;;;;;5067246;28;20039;-59
2022/03/04 07:59:22;;;;;;;234.73;108.18;;;5.60;99.90;;;;;;5064774;28;20049;-59
2022/03/04 08:01:48;;;;;;;224.82;107.93;;;5.80;99.90;;;;;;5071008;28;20078;-59
2022/03/04 08:04:14;;;;;;;233.30;106.25;;;6.20;99.40;;;;;;5062689;28;20501;-60
2022/03/04 08:06:40;;;;;;;216.73;107.93;;;6.40;99.60;;;;;;5064628;28;20024;-60
2022/03/04 08:09:06;;;;;;;212.48;101.15;;;6.70;98.60;;;;;;5057874;28;20021;-60
2022/03/04 08:11:34;;;;;;;198.38;93.88;;;7.10;97.40;;;;;;5067320;28;20347;-60
2022/03/04 08:14:00;;;;;;;206.10;94.47;;;7.50;98.80;;;;;;5059086;28;20033;-60
2022/03/04 08:16:29;;;;;;;180.77;84.60;;;7.80;95.90;;;;;;5066974;28;20037;-60
2022/03/04 08:18:59;;;;;;;165.18;78.32;;;8.10;94.20;;;;;;5061816;28;20047;-60
2022/03/04 08:21:25;;;;;;;161.05;75.32;;;8.40;93.20;;;;;;5061435;28;20052;-60
2022/03/04 08:23:52;;;;;;;159.57;75.95;;;8.80;92.40;;;;;;5056298;28;20437;-58
2022/03/04 08:26:18;;;;;;;158.88;74.85;;;8.90;92.40;;;;;;5052979;28;20398;-58
2022/03/04 08:28:44;;;;;;;152.38;72.28;;;8.40;91.70;;;;;;5071539;28;20033;-58
2022/03/04 08:31:14;;;;;;;220.40;76.30;;;8.60;92.10;;;;;;5065966;28;20063;-58
2022/03/04 08:33:43;;;;;;;166.57;77.20;;;8.60;91.40;;;;;;5065329;28;20197;-58
2022/03/04 08:36:13;;;;;;;159.63;77.13;;;8.80;92.80;;;;;;5054972;28;20090;-58
2022/03/04 08:38:47;;;;;;;169.52;78.95;;;8.90;90.40;;;;;;5073552;28;20028;-58
2022/03/04 08:41:14;;;;;;;;;;;9.30;88.60;;;;;;5060820;28;20021;-58
2022/03/04 08:43:40;;;;;;;181.50;83.90;;;9.40;91.60;;;;;;5066364;28;19916;-58
2022/03/04 08:46:08;;;;;;;184.07;89.20;;;9.90;89.20;;;;;;5054602;28;20024;-58
2022/03/04 08:48:35;;;;;;;175.23;90.15;;;9.90;81.40;;;;;;5053938;28;20496;-59
2022/03/04 08:51:01;;;;;;;187.40;94.63;;;9.90;76.20;;;;;;5059898;28;20037;-59
2022/03/04 08:53:30;;;;;;;188.73;94.50;;;9.80;81.00;;;;;;5059944;28;20111;-59
2022/03/04 08:55:56;;;;;;;182.27;92.10;;;10.10;77.70;;;;;;5058532;28;20017;-59
2022/03/04 08:58:23;;;;;;;203.32;91.45;;;10.50;71.60;;;;;;5056917;28;20101;-60
2022/03/04 09:00:50;;;;;;;196.82;94.28;;;11.20;64.90;;;;;;5052919;28;20123;-59
2022/03/04 09:03:16;;;;;;;192.93;94.97;;;11.10;73.50;;;;;;5067294;28;20039;-59
2022/03/04 09:05:42;;;;;;;187.63;95.28;;;11.20;68.10;;;;;;5059140;28;20024;-59
2022/03/04 09:08:08;;;;;;;157.52;80.63;;;11.20;61.20;;;;;;5076221;28;20033;-59
2022/03/04 09:10:34;;;;;;;149.90;75.30;;;11.50;55.00;;;;;;5077781;28;20024;-59
2022/03/04 09:13:00;;;;;;;146.05;75.95;;;11.30;54.00;;;;;;5063122;28;20115;-59
2022/03/04 09:15:26;;;;;;;145.07;72.38;;;11.80;51.90;;;;;;5066497;28;20019;-59
2022/03/04 09:17:52;;;;;;;134.15;67.70;;;11.60;49.70;;;;;;5081002;28;20133;-59
2022/03/04 09:20:19;;;;;;;141.95;72.53;;;11.50;53.30;;;;;;5071166;28;20036;-59
2022/03/04 09:22:49;;;;;;;154.80;72.70;;;11.70;52.80;;;;;;5067747;28;20028;-60
2022/03/04 09:25:18;;;;;;;78.05;40.08;;;12.80;52.50;;;;;;5069184;28;20362;-60
2022/03/04 09:27:46;;;;;;;74.57;39.85;;;12.70;41.40;;;;;;5064499;28;20032;-60
2022/03/04 09:30:12;;;;;;;103.18;51.20;;;13.10;40.20;;;;;;5055974;28;20097;-60
2022/03/04 09:32:39;;;;;;;111.40;58.50;;;12.80;40.50;;;;;;5078616;28;20117;-60
2022/03/04 09:35:06;;;;;;;104.93;53.53;;;12.30;40.30;;;;;;5074915;28;20040;-59
2022/03/04 09:37:32;;;;;;;105.03;53.80;;;11.90;42.90;;;;;;5067682;28;20066;-59
2022/03/04 09:39:58;;;;;;;120.93;56.10;;;11.70;43.80;;;;;;5073306;28;20037;-59
2022/03/04 09:42:24;;;;;;;124.32;60.55;;;12.10;44.00;;;;;;5075988;28;20059;-59
2022/03/04 09:44:50;;;;;;;118.13;58.50;;;12.10;42.00;;;;;;5066454;28;20021;-59
2022/03/04 09:47:22;;;;;;;104.28;55.13;;;12.50;40.20;;;;;;5070343;28;20032;-59
2022/03/04 09:49:50;;;;;;;106.55;54.67;;;12.80;38.10;;;;;;5071369;28;20036;-59
2022/03/04 09:52:17;;;;;;;120.03;54.40;;;13.40;37.50;;;;;;5083345;28;20545;-59
2022/03/04 09:54:47;;;;;;;105.03;50.25;;;14.10;36.80;;;;;;5080061;28;20021;-59
2022/03/04 09:57:14;;;;;;;113.95;56.45;;;12.80;36.00;;;;;;5070351;28;20121;-60
2022/03/04 09:59:40;;;;;;;126.63;55.80;;;12.80;38.30;;;;;;5062496;28;20036;-60
2022/03/04 10:02:06;;;;;;;96.60;47.25;;;13.20;36.90;;;;;;5060584;28;20512;-60
2022/03/04 10:04:33;;;;;;;73.95;41.38;;;13.00;35.90;;;;;;5073130;28;20055;-60
2022/03/04 10:07:14;;;;;;;69.03;40.20;;;12.90;35.40;;;;;;5087795;28;20032;-60
2022/03/04 10:09:42;;;;;;;;;;;12.70;35.90;;;;;;5074231;28;20028;-60
2022/03/04 10:12:09;;;;;;;81.38;41.05;;;12.90;36.20;;;;;;5076057;28;19920;-60
2022/03/04 10:15:06;;;;;;;73.10;41.40;;;12.50;35.80;;;;;;5071481;28;20051;-60
2022/03/04 10:17:35;;;;;;;64.50;38.20;;;12.70;35.30;;;;;;5085069;28;20457;-60
2022/03/04 10:20:04;;;;;;;73.45;37.80;;;12.90;34.90;;;;;;5069367;28;20035;-61
2022/03/04 10:22:37;;;;;;;73.20;39.70;;;13.50;35.20;;;;;;5065956;28;20063;-60
2022/03/04 10:25:25;;;;;;;87.95;42.05;;;13.70;34.60;;;;;;5074103;28;20044;-61
2022/03/04 10:27:52;;;;;;;48.80;27.40;;;14.50;34.50;;;;;;5070640;28;20028;-61
2022/03/04 10:30:44;;;;;;;48.42;27.02;;;14.40;31.90;;;;;;5087139;28;20126;-61
2022/03/04 10:33:16;;;;;;;57.92;30.60;;;14.50;32.60;;;;;;5074206;28;20368;-60
2022/03/04 10:35:43;;;;;;;51.83;30.85;;;15.30;31.60;;;;;;5074032;28;20032;-61
2022/03/04 10:38:25;;;;;;;61.30;34.13;;;15.40;30.20;;;;;;5075936;28;20028;-61
2022/03/04 10:40:51;;;;;;;62.85;31.83;;;14.20;31.10;;;;;;5077103;28;20032;-61
2022/03/04 10:43:23;;;;;;;52.65;30.02;;;13.20;32.30;;;;;;5080616;28;20032;-61
2022/03/04 10:46:03;;;;;;;49.40;27.60;;;13.30;33.20;;;;;;5078096;28;20494;-61
2022/03/04 10:48:31;;;;;;;40.85;24.88;;;14.50;32.80;;;;;;5081782;28;20482;-61
2022/03/04 10:50:59;;;;;;;41.35;25.10;;;14.40;32.20;;;;;;5075336;28;20028;-61
2022/03/04 10:53:29;;;;;;;52.40;27.38;;;15.30;31.90;;;;;;5076117;28;20037;-60
2022/03/04 10:55:58;;;;;;;41.45;26.40;;;15.30;30.80;;;;;;5077693;28;20038;-61
2022/03/04 10:58:27;;;;;;;43.63;25.77;;;14.60;30.10;;;;;;5071513;28;20027;-61
2022/03/04 11:00:56;;;;;;;57.92;30.92;;;14.50;31.90;;;;;;5073063;28;20021;-61
2022/03/04 11:03:29;;;;;;;44.88;25.33;;;14.50;31.60;;;;;;5072492;28;20033;-61
2022/03/04 11:06:05;;;;;;;49.65;26.50;;;13.50;32.00;;;;;;5063587;28;20072;-61
2022/03/04 11:08:31;;;;;;;48.10;26.52;;;13.90;33.30;;;;;;5064134;28;20021;-60
2022/03/04 11:10:59;;;;;;;47.78;27.95;;;13.90;33.40;;;;;;5070626;28;20390;-53
2022/03/04 11:13:26;;;;;;;43.28;25.27;;;14.30;33.60;;;;;;5061424;28;20112;-53
2022/03/04 11:16:04;;;;;;;47.90;28.05;;;14.50;32.80;;;;;;5061469;28;20040;-53
2022/03/04 11:18:33;;;;;;;45.95;24.77;;;14.00;31.90;;;;;;5048368;28;20060;-54
2022/03/04 11:21:00;;;;;;;52.97;27.48;;;13.60;32.80;;;;;;5053882;28;20013;-54
2022/03/04 11:23:29;;;;;;;50.97;27.88;;;13.30;33.50;;;;;;5067892;28;20044;-56
2022/03/04 11:26:02;;;;;;;47.13;25.55;;;14.60;35.00;;;;;;5073525;28;20025;-56
2022/03/04 11:28:49;;;;;;;51.92;24.30;;;15.30;32.20;;;;;;5063450;28;20036;-53
2022/03/04 11:31:20;;;;;;;46.50;26.25;;;15.50;30.70;;;;;;5065628;28;20458;-54
2022/03/04 11:34:02;;;;;;;45.53;25.77;;;15.30;30.10;;;;;;5074569;28;20095;-54
2022/03/04 11:36:34;;;;;;;49.50;26.08;;;14.90;30.30;;;;;;5059806;28;20040;-54
2022/03/04 11:39:09;;;;;;;45.20;26.38;;;15.10;29.90;;;;;;5075793;28;20477;-56
2022/03/04 11:41:59;;;;;;;35.95;23.45;;;15.60;30.00;;;;;;5080559;28;20072;-55
2022/03/04 11:44:28;;;;;;;39.10;24.10;;;15.80;29.40;;;;;;5068347;28;20062;-55
2022/03/04 11:47:05;;;;;;;42.28;23.08;;;14.90;29.30;;;;;;5067414;28;20302;-55
2022/03/04 11:49:38;;;;;;;42.03;22.63;;;13.90;29.60;;;;;;5070963;28;20028;-55
2022/03/04 11:52:11;;;;;;;45.30;23.42;;;13.80;30.10;;;;;;5057607;28;20033;-55
2022/03/04 11:54:42;;;;;;;28.25;18.08;;;14.00;30.40;;;;;;5060773;28;20033;-54
2022/03/04 11:57:35;;;;;;;30.35;18.63;;;13.60;29.30;;;;;;5067247;28;20039;-54
2022/03/04 12:00:11;;;;;;;34.22;18.13;;;13.80;29.30;;;;;;5063049;28;20050;-54
2022/03/04 12:02:48;;;;;;;32.60;17.40;;;13.70;29.00;;;;;;5062159;28;20389;-54
2022/03/04 12:05:21;;;;;;;34.83;19.52;;;14.40;29.60;;;;;;5053368;28;20025;-55
2022/03/04 12:12:21;;;;;;;22.05;14.77;;;13.90;28.30;;;;;;5040244;28;20051;-55
2022/03/04 12:15:14;;;;;;;20.60;12.20;;;14.10;27.80;;;;;;5047004;28;20043;-55
2022/03/04 12:17:59;;;;;;;24.20;13.23;;;14.10;26.60;;;;;;5060544;28;20078;-55
2022/03/04 12:20:45;;;;;;;24.35;12.43;;;14.10;26.60;;;;;;5066087;28;20036;-55
2022/03/04 12:23:14;;;;;;;27.33;13.98;;;15.00;27.00;;;;;;5061615;28;20044;-55
2022/03/04 12:25:55;;;;;;;23.42;14.20;;;14.90;25.40;;;;;;5067116;28;20116;-55
2022/03/04 12:28:26;;;;;;;22.70;11.77;;;15.20;25.40;;;;;;5071363;28;20698;-55